Time;durP1;ratioP1;P1;durP2;ratioP2;P2;SDS_P1;SDS_P2;PMS_P1;PMS_P2;Temp;Humidity;BMP_temperature;BMP_pressure;BME280_temperature;BME280_humidity;BME280_pressure;Samples;Min_cycle;Max_cycle;Signal;HPM_P1;HPM_P2
2024/01/01 00:00:00;;;;;;;299.00;13.52;;;;;;;20.98;57.66;98453.97;7288785;19;135758;-36
2024/01/01 00:02:25;;;;;;;250.45;11.73;;;;;;;20.85;57.54;98428.31;7295476;19;131126;-41
2024/01/01 00:04:51;;;;;;;322.40;15.13;;;;;;;20.95;57.60;98443.84;7284027;19;130975;-35
2024/01/01 00:07:16;;;;;;;283.63;13.30;;;;;;;20.96;57.93;98456.72;7295237;19;129481;-34
2024/01/01 00:09:42;;;;;;;172.85;9.18;;;;;;;20.96;57.80;98446.28;7293999;19;131004;-36
2024/01/01 00:12:09;;;;;;;235.68;10.90;;;;;;;20.95;57.56;98444.66;7294115;19;129673;-39
2024/01/01 00:14:34;;;;;;;;;;;;;;;20.95;59.27;98442.03;7296391;19;129654;-41
2024/01/01 00:16:59;;;;;;;273.20;12.40;;;;;;;20.91;57.17;98438.13;7294951;19;130007;-38
2024/01/01 00:19:25;;;;;;;198.05;10.40;;;;;;;20.95;57.73;98452.50;7296350;19;131402;-36
2024/01/01 00:21:50;;;;;;;207.90;10.23;;;;;;;20.94;57.85;98450.84;7295175;19;132904;-38
2024/01/01 00:24:16;;;;;;;267.43;12.50;;;;;;;20.94;57.75;98448.25;7295454;19;131534;-39
2024/01/01 00:26:43;;;;;;;257.65;12.25;;;;;;;20.94;57.86;98440.41;7297661;19;129675;-34
2024/01/01 00:29:09;;;;;;;155.40;8.65;;;;;;;20.93;57.32;98437.94;7296407;19;130979;-38
2024/01/01 00:31:36;;;;;;;236.60;11.73;;;;;;;20.93;57.69;98430.94;7293194;19;129405;-39
2024/01/01 00:34:01;;;;;;;239.80;11.85;;;;;;;20.93;57.29;98424.88;7293014;19;129617;-33
2024/01/01 00:36:27;;;;;;;162.68;8.95;;;;;;;20.90;57.97;98410.38;7296797;19;129501;-37
2024/01/01 00:38:53;;;;;;;197.38;10.05;;;;;;;20.91;57.93;98419.84;7296844;19;129632;-39
2024/01/01 00:41:19;;;;;;;265.27;13.57;;;;;;;20.91;57.95;98425.06;7294934;19;130260;-39
2024/01/01 00:43:44;;;;;;;226.10;11.03;;;;;;;20.91;58.06;98437.31;7295658;19;130084;-38
2024/01/01 00:46:10;;;;;;;275.17;13.73;;;;;;;20.90;57.81;98435.66;7297230;19;131572;-37
2024/01/01 00:48:35;;;;;;;120.53;7.73;;;;;;;20.90;58.08;98435.66;7298212;19;133724;-40
2024/01/01 00:51:01;;;;;;;230.70;12.23;;;;;;;20.90;57.38;98431.28;7295492;19;129875;-39
2024/01/01 00:53:27;;;;;;;247.98;12.43;;;;;;;20.88;57.69;98428.00;7294912;19;129370;-36
2024/01/01 00:55:52;;;;;;;211.07;10.75;;;;;;;20.87;57.85;98431.59;7293847;19;129621;-35
2024/01/01 00:58:17;;;;;;;226.83;11.90;;;;;;;20.87;57.92;98426.38;7295883;19;130185;-38
2024/01/01 01:00:43;;;;;;;248.45;12.95;;;;;;;20.87;57.54;98421.16;7295804;19;130042;-40
2024/01/01 01:03:08;;;;;;;274.95;13.15;;;;;;;20.89;58.13;98419.16;7294391;19;129061;-37
2024/01/01 01:05:33;;;;;;;213.82;11.40;;;;;;;20.89;57.54;98428.81;7292961;19;131970;-39
2024/01/01 01:07:59;;;;;;;191.23;10.85;;;;;;;20.88;57.45;98422.78;7295637;19;131893;-38
2024/01/01 01:10:25;;;;;;;221.43;12.48;;;;;;;20.87;57.48;98417.72;7292027;19;129644;-37
2024/01/01 01:12:53;;;;;;;182.70;10.07;;;;;;;20.87;57.72;98415.94;7295875;19;129578;-37
2024/01/01 01:15:19;;;;;;;228.07;11.93;;;;;;;20.88;58.13;98417.53;7290915;19;129507;-40
2024/01/01 01:17:45;;;;;;;152.00;9.05;;;;;;;20.87;57.97;98421.16;7293316;19;130263;-39
2024/01/01 01:20:11;;;;;;;220.00;11.70;;;;;;;20.87;58.15;98426.38;7293395;19;130854;-37
2024/01/01 01:22:36;;;;;;;198.43;10.03;;;;;;;20.78;58.05;98422.13;7295883;19;131187;-37
2024/01/01 01:25:02;;;;;;;205.90;10.55;;;;;;;20.73;58.38;98430.44;7294925;19;130377;-38
2024/01/01 01:27:27;;;;;;;214.40;11.27;;;;;;;20.73;58.39;98434.84;7294801;19;131265;-40
2024/01/01 01:29:52;;;;;;;246.38;12.48;;;;;;;20.70;58.26;98435.19;7292369;19;133153;-39
2024/01/01 01:32:18;;;;;;;265.00;13.23;;;;;;;20.72;58.51;98433.22;7295275;19;130083;-38
2024/01/01 01:34:43;;;;;;;193.60;10.75;;;;;;;20.70;58.71;98435.19;7292855;19;129330;-35
2024/01/01 01:37:08;;;;;;;174.30;10.07;;;;;;;20.74;58.80;98437.28;7293232;19;132068;-38
2024/01/01 01:39:35;;;;;;;286.45;13.82;;;;;;;20.71;58.67;98434.19;7294697;19;130924;-39
2024/01/01 01:42:00;;;;;;;243.63;12.60;;;;;;;20.64;59.39;98447.06;7292346;19;130535;-36
2024/01/01 01:44:26;;;;;;;211.55;11.88;;;;;;;20.69;59.15;98457.06;7293754;19;130983;-37
2024/01/01 01:46:51;;;;;;;263.37;13.70;;;;;;;20.94;58.34;98456.06;7293193;19;130369;-39
2024/01/01 01:49:17;;;;;;;270.17;12.88;;;;;;;21.30;56.99;98460.03;7293772;19;130383;-40
2024/01/01 01:51:47;;;;;;;245.93;12.43;;;;;;;21.72;56.12;98452.75;7293973;19;131472;-38
2024/01/01 01:54:12;;;;;;;298.23;15.20;;;;;;;22.26;54.31;98450.28;7292208;19;129340;-40
2024/01/01 01:56:38;;;;;;;188.45;10.23;;;;;;;22.86;52.92;98456.47;7294002;19;129937;-35
2024/01/01 01:59:03;;;;;;;220.82;11.07;;;;;;;23.23;51.13;98448.63;7295305;19;130693;-37
2024/01/01 02:01:29;;;;;;;100.72;7.07;;;;;;;23.59;50.83;98430.44;7294418;19;129408;-39
2024/01/01 02:03:55;;;;;;;189.90;10.48;;;;;;;23.80;49.99;98399.84;7291364;19;130741;-39
2024/01/01 02:06:20;;;;;;;227.02;11.63;;;;;;;24.05;49.54;98424.81;7292585;19;129135;-38
2024/01/01 02:08:46;;;;;;;285.92;13.95;;;;;;;24.19;48.86;98410.88;7293129;19;133207;-36
2024/01/01 02:11:11;;;;;;;202.00;10.75;;;;;;;24.39;48.63;98426.84;7292011;19;129602;-38
2024/01/01 02:13:36;;;;;;;165.63;9.63;;;;;;;24.51;48.23;98424.53;7292810;19;129444;-39
2024/01/01 02:16:02;;;;;;;220.60;11.27;;;;;;;24.49;47.87;98433.41;7292906;19;131016;-35
2024/01/01 02:18:28;;;;;;;243.67;12.47;;;;;;;24.47;48.64;98437.22;7292784;19;130780;-34
2024/01/01 02:20:55;;;;;;;250.03;13.03;;;;;;;24.43;48.51;98434.16;7293378;19;129667;-35
2024/01/01 02:23:20;;;;;;;236.93;12.18;;;;;;;24.31;48.51;98435.63;7292063;19;129178;-37
2024/01/01 02:25:46;;;;;;;211.37;10.90;;;;;;;24.07;49.39;98422.84;7289986;19;129613;-34
2024/01/01 02:28:13;;;;;;;246.90;12.50;;;;;;;24.01;49.99;98444.59;7292223;19;131037;-39
2024/01/01 02:30:39;;;;;;;196.00;10.35;;;;;;;23.69;50.46;98418.69;7290632;19;129388;-35
2024/01/01 02:33:11;;;;;;;202.07;11.07;;;;;;;23.67;50.39;98435.63;7290414;19;130204;-35
2024/01/01 02:35:37;;;;;;;184.60;10.65;;;;;;;23.53;50.99;98434.59;7292824;19;130935;-39
2024/01/01 02:38:04;;;;;;;271.20;12.93;;;;;;;23.27;51.11;98422.91;7291999;19;130439;-37
2024/01/01 02:40:32;;;;;;;233.60;12.45;;;;;;;23.19;51.68;98431.59;7293133;19;130031;-37
2024/01/01 02:43:00;;;;;;;203.13;10.82;;;;;;;23.06;51.75;98428.78;7291519;19;129379;-40
2024/01/01 02:45:25;;;;;;;200.50;10.43;;;;;;;22.92;52.30;98424.31;7291528;19;132750;-39
2024/01/01 02:47:51;;;;;;;324.47;15.73;;;;;;;22.65;53.16;98401.28;7291058;19;130266;-37
2024/01/01 02:50:18;;;;;;;262.30;13.15;;;;;;;22.69;53.16;98420.91;7292664;19;130759;-40
2024/01/01 02:52:43;;;;;;;186.75;10.50;;;;;;;22.54;53.62;98425.28;7290901;19;129471;-38
2024/01/01 02:55:09;;;;;;;180.93;9.80;;;;;;;22.42;53.42;98426.63;7289886;19;130419;-39
2024/01/01 02:57:34;;;;;;;293.75;14.40;;;;;;;22.29;53.84;98421.13;7291942;19;129934;-39
2024/01/01 03:00:00;;;;;;;193.17;10.50;;;;;;;22.21;54.20;98427.25;7292247;19;130014;-34
2024/01/01 03:02:25;;;;;;;191.10;10.87;;;;;;;21.98;54.49;98402.81;7291051;19;129387;-36
2024/01/01 03:04:50;;;;;;;189.38;10.38;;;;;;;22.06;54.77;98425.50;7290836;19;129394;-38
2024/01/01 03:07:16;;;;;;;247.38;12.52;;;;;;;21.96;55.21;98431.75;7292746;19;130409;-36
2024/01/01 03:09:41;;;;;;;215.40;11.55;;;;;;;21.90;55.76;98426.38;7292336;19;131290;-37
2024/01/01 03:12:07;;;;;;;203.30;10.90;;;;;;;21.82;55.21;98424.63;7290916;19;132115;-40
2024/01/01 03:14:32;;;;;;;200.88;10.65;;;;;;;21.61;55.82;98400.81;7290319;19;129203;-34
2024/01/01 03:16:57;;;;;;;240.77;12.55;;;;;;;21.68;56.03;98419.25;7292061;19;130355;-37
2024/01/01 03:19:23;;;;;;;228.70;11.83;;;;;;;21.65;55.78;98412.53;7303334;19;129191;-38
2024/01/01 03:21:48;;;;;;;220.50;11.48;;;;;;;21.58;55.90;98414.22;7304041;19;130390;-40
2024/01/01 03:24:13;;;;;;;222.17;11.77;;;;;;;21.57;56.44;98409.97;7305909;19;131409;-38
2024/01/01 03:26:39;;;;;;;196.32;10.25;;;;;;;21.48;56.40;98410.16;7306243;19;130197;-34
2024/01/01 03:29:04;;;;;;;150.98;8.77;;;;;;;21.48;56.82;98410.97;7305259;19;129555;-36
2024/01/01 03:31:29;;;;;;;186.70;10.30;;;;;;;21.49;56.46;98402.13;7301370;19;130269;-38
2024/01/01 03:33:55;;;;;;;268.92;12.75;;;;;;;21.45;56.66;98398.22;7302678;19;130116;-38
2024/01/01 03:36:21;;;;;;;222.57;11.57;;;;;;;21.45;57.14;98394.81;7306231;19;131086;-38
2024/01/01 03:38:46;;;;;;;190.98;10.52;;;;;;;21.42;56.57;98395.16;7305409;19;129162;-36
2024/01/01 03:41:11;;;;;;;230.07;12.10;;;;;;;21.42;56.85;98400.38;7303670;19;129499;-40
2024/01/01 03:43:37;;;;;;;302.20;14.70;;;;;;;21.38;57.15;98405.13;7305208;19;131406;-37
2024/01/01 03:46:02;;;;;;;204.13;10.95;;;;;;;21.35;56.86;98400.22;7303336;19;129251;-37
2024/01/01 03:48:27;;;;;;;153.40;8.63;;;;;;;21.22;56.86;98392.06;7303163;19;129465;-36
2024/01/01 03:50:54;;;;;;;220.87;11.40;;;;;;;21.36;57.17;98412.31;7305334;19;129927;-36
2024/01/01 03:53:19;;;;;;;272.40;13.30;;;;;;;21.32;56.75;98408.38;7305076;19;131130;-41
2024/01/01 03:55:44;;;;;;;208.65;10.63;;;;;;;21.28;57.49;98399.25;7304960;19;130442;-36
2024/01/01 03:58:10;;;;;;;183.03;10.17;;;;;;;21.27;57.57;98396.81;7305631;19;131383;-39
2024/01/01 04:00:36;;;;;;;215.43;11.20;;;;;;;21.27;57.66;98396.81;7304505;19;129429;-36
2024/01/01 04:03:01;;;;;;;218.07;10.77;;;;;;;21.26;57.80;98405.63;7304402;19;130966;-36
2024/01/01 04:05:26;;;;;;;269.65;13.35;;;;;;;21.26;57.27;98395.16;7302050;19;130554;-38
2024/01/01 04:07:52;;;;;;;194.82;10.10;;;;;;;21.06;57.74;98368.56;7304896;19;133237;-39
2024/01/01 04:10:17;;;;;;;278.73;13.63;;;;;;;21.21;57.51;98400.91;7304494;19;130795;-38
2024/01/01 04:12:43;;;;;;;207.75;10.45;;;;;;;21.21;57.77;98398.28;7304743;19;129199;-33
2024/01/01 04:15:08;;;;;;;189.95;9.80;;;;;;;21.24;57.65;98391.88;7303021;19;131057;-38
2024/01/01 04:17:33;;;;;;;285.17;13.45;;;;;;;21.26;58.32;98390.75;7302240;19;130685;-37
2024/01/01 04:19:59;;;;;;;301.70;13.55;;;;;;;21.29;57.85;98390.41;7304536;19;129536;-37
2024/01/01 04:22:24;;;;;;;200.93;10.70;;;;;;;21.29;57.68;98389.59;7303884;19;130283;-34
2024/01/01 04:24:49;;;;;;;154.13;8.53;;;;;;;21.28;57.81;98380.97;7301469;19;130463;-36
2024/01/01 04:27:15;;;;;;;212.00;11.00;;;;;;;21.32;57.64;98384.84;7303777;19;129524;-37
2024/01/01 04:29:40;;;;;;;272.60;13.05;;;;;;;21.36;57.96;98380.94;7299797;19;130005;-39
2024/01/01 04:32:06;;;;;;;216.70;11.33;;;;;;;21.33;58.16;98370.81;7297601;19;131035;-38
2024/01/01 04:34:31;;;;;;;200.27;10.32;;;;;;;21.29;57.42;98374.72;7294804;19;130282;-35
2024/01/01 04:36:56;;;;;;;247.68;12.23;;;;;;;21.30;58.24;98372.94;7295462;19;129597;-35
2024/01/01 04:39:22;;;;;;;216.10;10.80;;;;;;;21.32;58.15;98377.00;7297122;19;129370;-35
2024/01/01 04:41:47;;;;;;;232.10;11.60;;;;;;;21.26;58.11;98375.06;7294385;19;130100;-38
2024/01/01 04:44:12;;;;;;;210.85;10.25;;;;;;;21.26;57.66;98372.47;7295455;19;131032;-40
2024/01/01 04:46:38;;;;;;;194.85;9.98;;;;;;;21.29;57.77;98374.72;7295806;19;129491;-37
2024/01/01 04:49:04;;;;;;;205.30;10.43;;;;;;;21.35;57.75;98379.31;7295525;19;131007;-37
2024/01/01 04:51:29;;;;;;;266.70;13.02;;;;;;;21.29;58.29;98374.72;7294012;19;131011;-37
2024/01/01 04:53:54;;;;;;;193.98;9.98;;;;;;;21.14;58.08;98355.50;7296750;19;131712;-39
2024/01/01 04:56:21;;;;;;;278.42;13.18;;;;;;;21.18;57.90;98377.72;7296115;19;129438;-38
2024/01/01 04:58:47;;;;;;;;;;;;;;;21.11;59.07;98371.50;7297569;19;130541;-38
2024/01/01 05:01:12;;;;;;;200.88;10.63;;;;;;;21.10;58.33;98367.28;7295557;19;130124;-38
2024/01/01 05:03:37;;;;;;;250.10;12.27;;;;;;;21.07;58.32;98365.00;7293675;19;129428;-40
2024/01/01 05:06:03;;;;;;;269.48;12.73;;;;;;;21.06;58.07;98358.13;7294086;19;129574;-37
2024/01/01 05:08:28;;;;;;;205.43;10.45;;;;;;;21.07;58.62;98365.00;7296595;19;131391;-34
2024/01/01 05:10:54;;;;;;;169.97;9.57;;;;;;;21.04;58.28;98364.50;7294321;19;130066;-37
2024/01/01 05:13:19;;;;;;;215.82;10.93;;;;;;;21.05;58.62;98360.91;7294896;19;129978;-37
2024/01/01 05:15:44;;;;;;;241.10;11.68;;;;;;;21.01;58.78;98360.41;7294698;19;129080;-38
2024/01/01 05:18:10;;;;;;;226.07;10.73;;;;;;;21.01;58.50;98344.75;7295804;19;129404;-40
2024/01/01 05:20:35;;;;;;;196.23;10.25;;;;;;;21.07;58.40;98365.00;7296230;19;131405;-38
2024/01/01 05:23:00;;;;;;;207.23;10.18;;;;;;;21.02;58.62;98367.28;7295221;19;130954;-38
2024/01/01 05:25:26;;;;;;;265.53;12.97;;;;;;;21.07;58.08;98364.19;7291617;19;129662;-38
2024/01/01 05:27:51;;;;;;;232.83;11.37;;;;;;;21.07;58.20;98370.22;7295472;19;129030;-39
2024/01/01 05:30:17;;;;;;;264.13;12.52;;;;;;;21.07;58.24;98374.63;7294749;19;130205;-39
2024/01/01 05:32:42;;;;;;;215.20;10.40;;;;;;;21.08;58.18;98361.38;7294921;19;132832;-39
2024/01/01 05:35:07;;;;;;;218.75;10.38;;;;;;;21.12;58.05;98373.13;7294034;19;129319;-35
2024/01/01 05:37:33;;;;;;;191.90;9.88;;;;;;;21.17;57.85;98372.66;7293369;19;129827;-41
2024/01/01 05:39:58;;;;;;;188.13;9.65;;;;;;;21.19;57.35;98368.88;7294167;19;130100;-40
2024/01/01 05:42:24;;;;;;;277.98;13.10;;;;;;;21.13;57.73;98356.47;7294266;19;131072;-40
2024/01/01 05:44:49;;;;;;;174.73;8.68;;;;;;;21.17;57.64;98370.84;7293625;19;129881;-35
2024/01/01 05:47:14;;;;;;;213.73;10.23;;;;;;;21.18;58.10;98376.88;7293774;19;129260;-35
2024/01/01 05:49:40;;;;;;;193.87;10.47;;;;;;;21.17;58.17;98381.28;7292288;19;130657;-40
2024/01/01 05:52:05;;;;;;;252.98;11.65;;;;;;;21.16;57.61;98384.91;7294477;19;130350;-41
2024/01/01 05:54:30;;;;;;;205.80;10.47;;;;;;;21.20;57.96;98394.03;7294696;19;132177;-40
2024/01/01 05:56:56;;;;;;;173.93;8.82;;;;;;;21.16;57.35;98379.66;7295218;19;129821;-38
2024/01/01 05:59:21;;;;;;;219.90;10.63;;;;;;;21.20;57.42;98385.38;7293350;19;130086;-36
2024/01/01 06:01:46;;;;;;;193.63;9.30;;;;;;;21.22;57.49;98389.44;7292923;19;130958;-39
2024/01/01 06:04:12;;;;;;;235.13;10.75;;;;;;;21.20;57.55;98391.44;7293690;19;129726;-39
2024/01/01 06:06:37;;;;;;;291.23;13.95;;;;;;;21.19;57.88;98389.78;7290083;19;129077;-37
2024/01/01 06:09:03;;;;;;;201.77;9.68;;;;;;;21.20;57.58;98390.59;7292668;19;130974;-38
2024/01/01 06:11:29;;;;;;;233.27;10.97;;;;;;;21.14;58.06;98386.84;7291113;19;130443;-38
2024/01/01 06:13:54;;;;;;;244.05;11.18;;;;;;;21.14;58.34;98391.28;7294155;19;130099;-38
2024/01/01 06:16:20;;;;;;;200.53;9.97;;;;;;;21.15;57.50;98387.69;7293775;19;129405;-40
2024/01/01 06:18:46;;;;;;;225.00;10.00;;;;;;;21.11;58.24;98387.19;7290588;19;130047;-36
2024/01/01 06:21:11;;;;;;;207.83;9.47;;;;;;;21.13;58.06;98395.69;7292979;19;130338;-35
2024/01/01 06:23:39;;;;;;;261.35;12.50;;;;;;;21.14;57.84;98399.91;7290887;19;132248;-39
2024/01/01 06:26:04;;;;;;;197.65;9.65;;;;;;;21.16;57.60;98400.56;7291521;19;129765;-37
2024/01/01 06:28:30;;;;;;;261.85;11.98;;;;;;;21.12;57.68;98398.47;7291674;19;130648;-35
2024/01/01 06:30:55;;;;;;;281.10;12.93;;;;;;;21.14;57.68;98404.34;7294687;19;133020;-39
2024/01/01 06:33:21;;;;;;;222.75;10.63;;;;;;;21.12;58.24;98398.47;7291259;19;130009;-39
2024/01/01 06:35:46;;;;;;;129.17;7.27;;;;;;;21.10;58.50;98401.25;7290540;19;129505;-35
2024/01/01 06:38:11;;;;;;;243.13;10.97;;;;;;;21.10;57.79;98400.41;7291419;19;131183;-37
2024/01/01 06:40:37;;;;;;;245.00;11.60;;;;;;;21.11;58.27;98408.09;7292667;19;131560;-39
2024/01/01 06:43:03;;;;;;;225.27;10.38;;;;;;;21.08;58.07;98391.91;7291884;19;130033;-37
2024/01/01 06:45:28;;;;;;;183.88;8.90;;;;;;;21.12;57.71;98408.91;7289559;19;130664;-40
2024/01/01 06:47:54;;;;;;;235.87;10.97;;;;;;;21.11;58.27;98412.50;7292677;19;130479;-35
2024/01/01 06:50:19;;;;;;;177.77;8.75;;;;;;;21.08;58.39;98411.03;7292256;19;130668;-36
2024/01/01 06:52:45;;;;;;;233.85;10.48;;;;;;;21.10;57.69;98423.94;7288731;19;129689;-40
2024/01/01 06:55:10;;;;;;;235.65;10.05;;;;;;;21.06;58.32;98423.44;7290139;19;130897;-40
2024/01/01 06:57:36;;;;;;;298.73;12.97;;;;;;;20.89;58.41;98398.28;7289389;19;130460;-37
2024/01/01 07:00:02;;;;;;;185.10;8.88;;;;;;;21.05;58.49;98427.06;7287893;19;131062;-36
2024/01/01 07:02:28;;;;;;;189.00;9.25;;;;;;;20.93;58.39;98406.59;7292972;19;131721;-39
2024/01/01 07:04:53;;;;;;;237.53;10.93;;;;;;;21.04;58.67;98428.03;7289568;19;129981;-40
2024/01/01 07:07:19;;;;;;;234.97;10.53;;;;;;;20.89;58.03;98407.94;7291865;19;132061;-37
2024/01/01 07:09:44;;;;;;;239.60;11.18;;;;;;;21.02;58.38;98429.19;7290875;19;130340;-38
2024/01/01 07:12:20;;;;;;;198.63;9.43;;;;;;;21.02;58.85;98439.63;7291341;19;129489;-37
2024/01/01 07:14:49;;;;;;;284.90;12.75;;;;;;;21.00;58.65;98431.97;7289318;19;130360;-38
2024/01/01 07:17:15;;;;;;;229.55;10.38;;;;;;;21.01;57.93;98448.44;7290866;19;130200;-36
2024/01/01 07:19:40;;;;;;;226.27;10.67;;;;;;;21.01;58.45;98446.63;7290339;19;131109;-40
2024/01/01 07:22:05;;;;;;;267.92;11.77;;;;;;;21.00;57.94;98450.25;7288124;19;130179;-40
2024/01/01 07:24:31;;;;;;;197.48;10.15;;;;;;;20.99;57.99;98445.97;7288841;19;131047;-40
2024/01/01 07:27:00;;;;;;;312.07;13.57;;;;;;;21.00;58.74;98452.88;7282974;19;130290;-36
2024/01/01 07:29:26;;;;;;;346.15;15.48;;;;;;;20.87;58.41;98431.59;7282021;19;131782;-40
2024/01/01 07:31:51;;;;;;;186.47;8.67;;;;;;;21.00;58.43;98458.09;7289122;19;129287;-37
2024/01/01 07:34:18;;;;;;;220.52;9.90;;;;;;;21.00;58.81;98450.25;7288577;19;129190;-38
2024/01/01 07:36:44;;;;;;;285.15;12.50;;;;;;;21.01;58.31;98457.09;7292251;19;130704;-37
2024/01/01 07:39:09;;;;;;;186.48;8.63;;;;;;;21.00;58.60;98460.69;7290901;19;130545;-35
2024/01/01 07:41:35;;;;;;;196.25;9.15;;;;;;;20.85;58.58;98436.16;7288078;19;129787;-38
2024/01/01 07:44:00;;;;;;;258.25;11.07;;;;;;;20.98;58.19;98460.03;7288975;19;129362;-37
2024/01/01 07:46:25;;;;;;;259.13;11.40;;;;;;;20.97;58.23;98461.03;7289214;19;131194;-38
2024/01/01 07:48:51;;;;;;;213.20;9.65;;;;;;;20.95;58.23;98457.72;7290402;19;129697;-39
2024/01/01 07:51:16;;;;;;;226.83;10.23;;;;;;;20.96;58.06;98455.94;7290446;19;130110;-38
2024/01/01 07:53:42;;;;;;;249.45;10.98;;;;;;;20.95;58.78;98455.13;7289228;19;130815;-37
2024/01/01 07:56:08;;;;;;;263.53;11.80;;;;;;;20.92;58.78;98455.44;7288763;19;131023;-39
2024/01/01 07:58:33;;;;;;;188.02;8.38;;;;;;;20.94;58.49;98474.38;7289884;19;130525;-37
2024/01/01 08:00:58;;;;;;;207.73;10.00;;;;;;;20.95;58.42;98470.78;7287019;19;129881;-36
2024/01/01 08:03:25;;;;;;;224.50;9.77;;;;;;;20.96;58.78;98482.84;7287525;19;129940;-36
2024/01/01 08:05:51;;;;;;;298.70;13.25;;;;;;;20.96;58.30;98482.06;7289123;19;130750;-39
2024/01/01 08:08:16;;;;;;;221.90;9.82;;;;;;;20.95;58.75;98470.78;7291633;19;131468;-38
2024/01/01 08:10:43;;;;;;;246.55;11.07;;;;;;;20.92;58.66;98476.34;7291541;19;129961;-36
2024/01/01 08:13:08;;;;;;;288.73;12.18;;;;;;;20.92;58.99;98476.34;7292455;19;130305;-38
2024/01/01 08:15:34;;;;;;;269.23;11.77;;;;;;;20.94;58.41;98478.78;7288599;19;130133;-37
2024/01/01 08:17:59;;;;;;;143.77;7.00;;;;;;;20.92;58.79;98475.53;7291337;19;132141;-38
2024/01/01 08:20:24;;;;;;;226.43;10.73;;;;;;;20.90;59.09;98472.25;7285413;19;129701;-36
2024/01/01 08:22:50;;;;;;;264.67;11.32;;;;;;;20.93;58.55;98479.75;7290165;19;130735;-36
2024/01/01 08:25:15;;;;;;;265.15;11.68;;;;;;;20.93;58.64;98482.38;7289893;19;130705;-40
2024/01/01 08:27:40;;;;;;;254.23;11.47;;;;;;;20.89;58.67;98475.84;7289671;19;129785;-37
2024/01/01 08:30:06;;;;;;;242.85;10.45;;;;;;;20.80;58.67;98464.56;7288739;19;130059;-36
2024/01/01 08:32:33;;;;;;;219.20;9.33;;;;;;;20.92;58.36;98481.56;7290440;19;130559;-38
2024/01/01 08:34:58;;;;;;;277.35;11.63;;;;;;;20.91;58.99;98482.53;7285785;19;130862;-38
2024/01/01 08:37:23;;;;;;;261.50;11.43;;;;;;;20.79;58.39;98460.34;7287138;19;130803;-38
2024/01/01 08:39:49;;;;;;;277.47;12.07;;;;;;;20.92;59.16;98491.19;7291338;19;130013;-40
2024/01/01 08:42:14;;;;;;;235.38;10.02;;;;;;;20.79;58.25;98465.56;7294443;19;130758;-36
2024/01/01 08:44:40;;;;;;;198.80;8.70;;;;;;;20.91;58.89;98485.13;7293781;19;130220;-35
2024/01/01 08:47:05;;;;;;;224.13;9.87;;;;;;;20.92;58.82;98486.78;7291507;19;131072;-39
2024/01/01 08:49:30;;;;;;;280.48;11.82;;;;;;;20.93;58.56;98493.63;7295426;19;130961;-38
2024/01/01 08:51:56;;;;;;;255.87;10.87;;;;;;;20.91;58.91;98495.59;7294715;19;129837;-38
2024/01/01 08:54:22;;;;;;;129.23;6.70;;;;;;;20.92;58.94;98492.03;7294414;19;130235;-34
2024/01/01 08:56:48;;;;;;;218.43;10.32;;;;;;;20.90;58.87;98493.97;7294943;19;131442;-40
2024/01/01 08:59:15;;;;;;;278.48;11.70;;;;;;;20.90;58.66;98493.97;7295000;19;129407;-40
2024/01/01 09:01:45;;;;;;;226.52;9.88;;;;;;;20.91;58.62;98490.38;7292954;19;129079;-35
2024/01/01 09:04:10;;;;;;;166.57;7.65;;;;;;;20.93;58.44;98488.41;7294368;19;131688;-39
2024/01/01 09:06:35;;;;;;;173.80;8.02;;;;;;;20.78;58.97;98463.91;7293829;19;131843;-38
2024/01/01 09:09:01;;;;;;;298.55;12.50;;;;;;;20.92;58.55;98475.53;7294424;19;129658;-38
2024/01/01 09:11:26;;;;;;;211.02;8.90;;;;;;;20.79;58.67;98462.13;7295455;19;130727;-39
2024/01/01 09:13:51;;;;;;;237.15;10.60;;;;;;;20.89;58.34;98488.91;7292097;19;129216;-40
2024/01/01 09:16:17;;;;;;;155.90;7.07;;;;;;;20.91;58.78;98490.38;7291390;19;129824;-37
2024/01/01 09:18:42;;;;;;;244.05;10.60;;;;;;;20.92;59.05;98492.03;7294692;19;130731;-37
2024/01/01 09:21:15;;;;;;;253.03;11.27;;;;;;;20.92;59.13;98494.63;7294820;19;130304;-38
2024/01/01 09:23:41;;;;;;;227.27;9.55;;;;;;;20.91;58.98;98490.38;7293259;19;131877;-37
2024/01/01 09:26:07;;;;;;;190.60;8.57;;;;;;;20.92;58.95;98491.19;7292721;19;133307;-35
2024/01/01 09:28:33;;;;;;;268.48;10.95;;;;;;;20.89;58.30;98483.69;7294717;19;131462;-38
2024/01/01 09:30:58;;;;;;;261.10;11.60;;;;;;;20.92;58.30;98491.19;7295001;19;130782;-38
2024/01/01 09:33:24;;;;;;;234.32;10.00;;;;;;;20.90;58.92;98493.97;7290043;19;130309;-37
2024/01/01 09:35:51;;;;;;;201.07;8.97;;;;;;;20.91;58.99;98495.59;7289085;19;130674;-34
2024/01/01 09:38:17;;;;;;;196.35;8.07;;;;;;;20.91;58.22;98489.56;7294177;19;129893;-38
2024/01/01 09:40:42;;;;;;;195.30;8.38;;;;;;;20.93;58.54;98496.25;7293580;19;131879;-39
2024/01/01 09:43:13;;;;;;;183.23;8.32;;;;;;;20.91;59.21;98481.72;7292235;19;131160;-34
2024/01/01 09:45:39;;;;;;;265.15;11.55;;;;;;;20.90;58.39;98480.91;7286917;19;130287;-35
2024/01/01 09:48:05;;;;;;;286.58;11.88;;;;;;;20.91;59.02;98484.34;7282753;19;130596;-35
2024/01/01 09:50:30;;;;;;;247.60;10.57;;;;;;;20.89;59.15;98481.88;7291445;19;129948;-39
2024/01/01 09:52:59;;;;;;;212.98;9.57;;;;;;;20.85;59.16;98482.34;7292689;19;130418;-36
2024/01/01 09:55:24;;;;;;;201.88;8.60;;;;;;;20.86;58.77;98478.78;7291050;19;131044;-39
2024/01/01 09:57:50;;;;;;;240.13;10.18;;;;;;;20.88;58.63;98475.03;7291439;19;129583;-35
2024/01/01 10:00:22;;;;;;;221.13;9.95;;;;;;;20.79;59.83;98470.78;7294467;19;130540;-37
2024/01/01 10:02:47;;;;;;;268.50;11.43;;;;;;;20.69;58.26;98454.44;7288105;19;131019;-39
2024/01/01 10:05:14;;;;;;;211.07;8.82;;;;;;;20.84;58.40;98476.31;7289587;19;132357;-40
2024/01/01 10:07:40;;;;;;;290.60;11.73;;;;;;;20.86;58.21;98484.81;7290061;19;131529;-37
2024/01/01 10:10:06;;;;;;;196.93;8.57;;;;;;;20.89;58.85;98487.09;7288815;19;131189;-41
2024/01/01 10:12:34;;;;;;;208.57;8.88;;;;;;;20.90;58.56;98483.53;7293155;19;131406;-39
2024/01/01 10:15:00;;;;;;;230.90;10.43;;;;;;;20.83;59.06;98482.53;7287679;19;130628;-40
2024/01/01 10:17:26;;;;;;;272.80;11.60;;;;;;;20.85;58.09;98491.03;7292158;19;129333;-37
2024/01/01 10:20:02;;;;;;;442.30;18.92;;;;;;;20.86;58.26;98492.66;7289464;19;129206;-35
2024/01/01 10:22:31;;;;;;;244.15;10.57;;;;;;;20.86;58.77;98486.63;7286902;19;131363;-39
2024/01/01 10:25:13;;;;;;;197.90;9.05;;;;;;;20.87;58.65;98488.25;7289387;19;131892;-40
2024/01/01 10:27:38;;;;;;;145.00;6.78;;;;;;;20.87;58.67;98483.84;7289600;19;130361;-38
2024/01/01 10:30:05;;;;;;;240.40;10.15;;;;;;;20.88;58.34;98495.09;7292059;19;133550;-39
2024/01/01 10:32:32;;;;;;;;;;;;;;;20.88;59.29;98495.91;7292325;19;131625;-35
2024/01/01 10:34:59;;;;;;;279.58;12.13;;;;;;;20.86;58.92;98492.66;7286858;19;130360;-40
2024/01/01 10:37:28;;;;;;;207.27;9.13;;;;;;;20.88;58.34;98489.88;7290739;19;129856;-38
2024/01/01 10:39:54;;;;;;;517.97;22.60;;;;;;;20.74;58.60;98470.44;7288522;19;129621;-36
2024/01/01 10:42:20;;;;;;;;;;;;;;;20.85;58.95;98484.97;7289352;19;133472;-39
2024/01/01 10:44:45;;;;;;;117.88;5.55;;;;;;;20.74;58.56;98467.84;7288719;19;130738;-37
2024/01/01 10:47:10;;;;;;;119.80;5.90;;;;;;;20.87;59.04;98485.63;7286437;19;129621;-37
2024/01/01 10:49:47;;;;;;;242.77;10.07;;;;;;;20.87;59.20;98489.06;7289578;19;128996;-34
2024/01/01 10:53:07;;;;;;;171.33;7.43;;;;;;;20.85;59.74;98491.03;7288669;19;130991;-37
2024/01/01 10:55:54;;;;;;;135.77;6.07;;;;;;;20.81;59.42;98479.25;7279791;19;130484;-36
2024/01/01 10:58:50;;;;;;;243.70;10.40;;;;;;;20.85;58.85;98482.34;7289451;19;129354;-35